RYROK2 LOWW-EPKK
Flight info
| Callsign | RYROK2 |
|---|---|
| Flight time | 0h 43m |
| Altitude | 27000 |
| Route | LEDVA3B/16 LEDVA DCT NETIR |
| Aircraft | B739/M-V/N |
Departure
| Time | 2026-05-04 18:09 |
|---|---|
| Airport | Vienna International Airport (LOWW) |
Arrival
| Time | 2026-05-04 18:52 |
|---|---|
| Airport | Kraków John Paul II International Airport (EPKK) |
| Time | Latitude | Longitude | Altitude | Speed | Heading |
|---|---|---|---|---|---|
| 2026-05-04 17:35 | 48.11983 | 16.57035 | 587 ft | 0 kts | 28° |
| 2026-05-04 17:37 | 48.11984 | 16.57036 | 587 ft | 0 kts | 32° |
| 2026-05-04 17:38 | 48.11983 | 16.57036 | 587 ft | 0 kts | 33° |
| 2026-05-04 17:38 | 48.11983 | 16.57035 | 587 ft | 0 kts | 33° |
| 2026-05-04 17:43 | 48.11982 | 16.57035 | 587 ft | 0 kts | 32° |
| 2026-05-04 17:45 | 48.11982 | 16.57034 | 587 ft | 0 kts | 32° |
| 2026-05-04 17:48 | 48.11981 | 16.57034 | 587 ft | 0 kts | 31° |
| 2026-05-04 17:52 | 48.11981 | 16.57033 | 587 ft | 0 kts | 31° |
| 2026-05-04 17:53 | 48.11980 | 16.57033 | 587 ft | 0 kts | 31° |
| 2026-05-04 17:59 | 48.11979 | 16.57033 | 587 ft | 0 kts | 30° |
| 2026-05-04 18:01 | 48.11979 | 16.57032 | 587 ft | 0 kts | 29° |
| 2026-05-04 18:04 | 48.12002 | 16.57048 | 585 ft | 8 kts | 24° |
| 2026-05-04 18:04 | 48.12048 | 16.57151 | 591 ft | 5 kts | 122° |
| 2026-05-04 18:05 | 48.12028 | 16.57196 | 595 ft | 5 kts | 123° |
| 2026-05-04 18:05 | 48.12015 | 16.57231 | 597 ft | 4 kts | 117° |
| 2026-05-04 18:05 | 48.12014 | 16.57236 | 598 ft | 0 kts | 116° |
| 2026-05-04 18:05 | 48.12011 | 16.57244 | 598 ft | 1 kts | 116° |
| 2026-05-04 18:06 | 48.11994 | 16.57326 | 601 ft | 11 kts | 90° |
| 2026-05-04 18:06 | 48.12012 | 16.57499 | 602 ft | 22 kts | 95° |
| 2026-05-04 18:06 | 48.11997 | 16.57590 | 602 ft | 0 kts | 105° |
| 2026-05-04 18:07 | 48.11997 | 16.57591 | 602 ft | 1 kts | 105° |
| 2026-05-04 18:07 | 48.11986 | 16.57658 | 602 ft | 12 kts | 104° |
| 2026-05-04 18:08 | 48.11942 | 16.57806 | 616 ft | 18 kts | 135° |
| 2026-05-04 18:08 | 48.11847 | 16.57876 | 609 ft | 0 kts | 164° |
| 2026-05-04 18:08 | 48.11838 | 16.57881 | 618 ft | 13 kts | 164° |
| 2026-05-04 18:09 | 48.10711 | 16.58361 | 602 ft | 146 kts | 163° |
| 2026-05-04 18:09 | 48.08477 | 16.59250 | 1234 ft | 191 kts | 163° |
| 2026-05-04 18:10 | 48.07146 | 16.59814 | 1806 ft | 199 kts | 166° |
| 2026-05-04 18:10 | 48.05865 | 16.60652 | 2410 ft | 209 kts | 142° |
| 2026-05-04 18:10 | 48.05127 | 16.62568 | 3041 ft | 226 kts | 106° |
| 2026-05-04 18:10 | 48.05325 | 16.64951 | 3638 ft | 243 kts | 68° |
| 2026-05-04 18:11 | 48.06412 | 16.66917 | 4272 ft | 250 kts | 43° |
| 2026-05-04 18:11 | 48.07722 | 16.68625 | 4848 ft | 254 kts | 42° |
| 2026-05-04 18:11 | 48.09087 | 16.70438 | 4914 ft | 264 kts | 43° |
| 2026-05-04 18:11 | 48.10446 | 16.72306 | 4946 ft | 268 kts | 45° |
| 2026-05-04 18:12 | 48.11802 | 16.74211 | 4992 ft | 268 kts | 45° |
| 2026-05-04 18:12 | 48.13182 | 16.76169 | 4985 ft | 283 kts | 45° |
| 2026-05-04 18:12 | 48.14729 | 16.78061 | 4985 ft | 290 kts | 27° |
| 2026-05-04 18:12 | 48.16676 | 16.78819 | 5239 ft | 292 kts | 359° |
| 2026-05-04 18:13 | 48.18678 | 16.78497 | 6153 ft | 286 kts | 348° |
| 2026-05-04 18:13 | 48.20629 | 16.77966 | 7042 ft | 285 kts | 347° |
| 2026-05-04 18:13 | 48.24597 | 16.76853 | 8547 ft | 291 kts | 347° |
| 2026-05-04 18:14 | 48.26616 | 16.76301 | 9229 ft | 298 kts | 348° |
| 2026-05-04 18:14 | 48.28666 | 16.75753 | 10015 ft | 299 kts | 348° |
| 2026-05-04 18:14 | 48.30740 | 16.75204 | 10545 ft | 311 kts | 348° |
| 2026-05-04 18:15 | 48.35354 | 16.74446 | 10843 ft | 359 kts | 7° |
| 2026-05-04 18:15 | 48.40439 | 16.76035 | 11653 ft | 381 kts | 11° |
| 2026-05-04 18:15 | 48.43041 | 16.76867 | 12337 ft | 384 kts | 11° |
| 2026-05-04 18:16 | 48.45634 | 16.77663 | 12971 ft | 387 kts | 10° |
| 2026-05-04 18:16 | 48.48326 | 16.78468 | 13611 ft | 392 kts | 10° |
| 2026-05-04 18:16 | 48.51020 | 16.79228 | 14173 ft | 396 kts | 6° |
| 2026-05-04 18:17 | 48.56498 | 16.79285 | 15376 ft | 398 kts | 356° |
| 2026-05-04 18:17 | 48.59311 | 16.79149 | 15974 ft | 401 kts | 356° |
| 2026-05-04 18:17 | 48.64935 | 16.78997 | 17131 ft | 407 kts | 358° |
| 2026-05-04 18:18 | 48.67739 | 16.78960 | 17701 ft | 410 kts | 358° |
| 2026-05-04 18:18 | 48.70593 | 16.79221 | 18223 ft | 415 kts | 11° |
| 2026-05-04 18:18 | 48.73285 | 16.80845 | 18708 ft | 419 kts | 31° |
| 2026-05-04 18:18 | 48.75526 | 16.83662 | 19224 ft | 421 kts | 49° |
| 2026-05-04 18:19 | 48.79184 | 16.90656 | 20204 ft | 426 kts | 52° |
| 2026-05-04 18:19 | 48.80995 | 16.94246 | 20669 ft | 429 kts | 52° |
| 2026-05-04 18:19 | 48.82817 | 16.97853 | 21157 ft | 432 kts | 52° |
| 2026-05-04 18:20 | 48.84652 | 17.01464 | 21648 ft | 434 kts | 52° |
| 2026-05-04 18:20 | 48.86508 | 17.05094 | 22113 ft | 436 kts | 51° |
| 2026-05-04 18:20 | 48.88376 | 17.08733 | 22566 ft | 439 kts | 51° |
| 2026-05-04 18:20 | 48.90261 | 17.12399 | 23031 ft | 441 kts | 51° |
| 2026-05-04 18:21 | 48.92155 | 17.16081 | 23489 ft | 443 kts | 51° |
| 2026-05-04 18:21 | 48.94061 | 17.19789 | 23867 ft | 446 kts | 51° |
| 2026-05-04 18:21 | 48.95971 | 17.23508 | 24243 ft | 448 kts | 51° |
| 2026-05-04 18:21 | 48.97889 | 17.27250 | 24619 ft | 449 kts | 51° |
| 2026-05-04 18:22 | 48.99815 | 17.31012 | 24991 ft | 451 kts | 51° |
| 2026-05-04 18:22 | 49.01749 | 17.34796 | 25348 ft | 454 kts | 51° |
| 2026-05-04 18:22 | 49.03690 | 17.38599 | 25691 ft | 456 kts | 51° |
| 2026-05-04 18:22 | 49.05644 | 17.42434 | 26035 ft | 458 kts | 51° |
| 2026-05-04 18:23 | 49.07603 | 17.46283 | 26374 ft | 460 kts | 51° |
| 2026-05-04 18:23 | 49.08904 | 17.48844 | 26628 ft | 461 kts | 51° |
| 2026-05-04 18:23 | 49.10868 | 17.52713 | 26976 ft | 461 kts | 51° |
| 2026-05-04 18:23 | 49.13464 | 17.57837 | 26974 ft | 460 kts | 51° |
| 2026-05-04 18:24 | 49.15413 | 17.61690 | 26980 ft | 458 kts | 51° |
| 2026-05-04 18:24 | 49.17322 | 17.65469 | 26985 ft | 458 kts | 51° |
| 2026-05-04 18:24 | 49.19267 | 17.69325 | 26988 ft | 455 kts | 51° |
| 2026-05-04 18:24 | 49.20561 | 17.71895 | 26971 ft | 447 kts | 51° |
| 2026-05-04 18:25 | 49.22432 | 17.75615 | 26975 ft | 438 kts | 51° |
| 2026-05-04 18:25 | 49.24285 | 17.79304 | 26983 ft | 436 kts | 51° |
| 2026-05-04 18:25 | 49.26135 | 17.82990 | 26994 ft | 436 kts | 51° |
| 2026-05-04 18:25 | 49.27984 | 17.86677 | 26990 ft | 436 kts | 51° |
| 2026-05-04 18:26 | 49.29803 | 17.90311 | 26974 ft | 422 kts | 51° |
| 2026-05-04 18:26 | 49.31529 | 17.93770 | 26965 ft | 405 kts | 51° |
| 2026-05-04 18:26 | 49.33228 | 17.97175 | 26969 ft | 389 kts | 51° |
| 2026-05-04 18:26 | 49.34836 | 18.00405 | 26968 ft | 373 kts | 51° |
| 2026-05-04 18:27 | 49.36360 | 18.03467 | 26968 ft | 359 kts | 51° |
| 2026-05-04 18:27 | 49.37841 | 18.06446 | 26973 ft | 344 kts | 51° |
| 2026-05-04 18:27 | 49.39300 | 18.09381 | 26530 ft | 344 kts | 51° |
| 2026-05-04 18:27 | 49.40792 | 18.12379 | 25353 ft | 366 kts | 51° |
| 2026-05-04 18:28 | 49.42395 | 18.15601 | 24044 ft | 392 kts | 51° |
| 2026-05-04 18:28 | 49.44093 | 18.19024 | 22802 ft | 411 kts | 52° |
| 2026-05-04 18:28 | 49.45815 | 18.22506 | 21970 ft | 416 kts | 52° |
| 2026-05-04 18:28 | 49.47539 | 18.26002 | 21446 ft | 412 kts | 52° |
| 2026-05-04 18:29 | 49.49280 | 18.29538 | 20961 ft | 408 kts | 52° |
| 2026-05-04 18:29 | 49.50983 | 18.32998 | 20489 ft | 403 kts | 52° |
| 2026-05-04 18:29 | 49.52659 | 18.36408 | 20214 ft | 395 kts | 52° |
| 2026-05-04 18:29 | 49.54268 | 18.39685 | 19841 ft | 391 kts | 52° |
| 2026-05-04 18:30 | 49.57583 | 18.46445 | 19340 ft | 397 kts | 53° |
| 2026-05-04 18:30 | 49.59256 | 18.49864 | 19111 ft | 401 kts | 53° |
| 2026-05-04 18:30 | 49.60931 | 18.53293 | 19016 ft | 400 kts | 53° |
| 2026-05-04 18:31 | 49.62601 | 18.56715 | 18994 ft | 399 kts | 52° |
| 2026-05-04 18:31 | 49.64267 | 18.60132 | 19001 ft | 398 kts | 52° |
| 2026-05-04 18:31 | 49.65932 | 18.63550 | 18988 ft | 398 kts | 53° |
| 2026-05-04 18:31 | 49.67597 | 18.66973 | 18990 ft | 399 kts | 53° |
| 2026-05-04 18:32 | 49.69132 | 18.70535 | 18985 ft | 399 kts | 62° |
| 2026-05-04 18:32 | 49.70259 | 18.74433 | 18857 ft | 398 kts | 72° |
| 2026-05-04 18:32 | 49.71056 | 18.78517 | 18706 ft | 397 kts | 75° |
| 2026-05-04 18:32 | 49.71805 | 18.82623 | 18555 ft | 397 kts | 75° |
| 2026-05-04 18:33 | 49.72544 | 18.86729 | 18392 ft | 396 kts | 75° |
| 2026-05-04 18:33 | 49.73283 | 18.90822 | 18229 ft | 395 kts | 75° |
| 2026-05-04 18:33 | 49.74026 | 18.94901 | 18058 ft | 395 kts | 75° |
| 2026-05-04 18:33 | 49.74775 | 18.98981 | 17864 ft | 394 kts | 75° |
| 2026-05-04 18:34 | 49.75524 | 19.03042 | 17732 ft | 392 kts | 75° |
| 2026-05-04 18:34 | 49.76274 | 19.07100 | 17563 ft | 391 kts | 75° |
| 2026-05-04 18:34 | 49.77022 | 19.11144 | 17417 ft | 391 kts | 75° |
| 2026-05-04 18:34 | 49.77777 | 19.15184 | 17246 ft | 391 kts | 73° |
| 2026-05-04 18:35 | 49.78633 | 19.19171 | 17092 ft | 391 kts | 71° |
| 2026-05-04 18:35 | 49.79531 | 19.23137 | 16834 ft | 389 kts | 71° |
| 2026-05-04 18:35 | 49.80433 | 19.27073 | 16173 ft | 395 kts | 71° |
| 2026-05-04 18:35 | 49.81307 | 19.30853 | 15623 ft | 394 kts | 71° |
| 2026-05-04 18:36 | 49.82235 | 19.34844 | 15024 ft | 394 kts | 71° |
| 2026-05-04 18:36 | 49.83164 | 19.38825 | 14456 ft | 392 kts | 71° |
| 2026-05-04 18:36 | 49.84095 | 19.42791 | 13888 ft | 392 kts | 71° |
| 2026-05-04 18:36 | 49.85028 | 19.46749 | 13256 ft | 390 kts | 71° |
| 2026-05-04 18:37 | 49.85960 | 19.50694 | 12637 ft | 389 kts | 71° |
| 2026-05-04 18:37 | 49.86887 | 19.54623 | 12029 ft | 387 kts | 71° |
| 2026-05-04 18:37 | 49.87808 | 19.58536 | 11427 ft | 385 kts | 71° |
| 2026-05-04 18:37 | 49.88722 | 19.62430 | 10838 ft | 383 kts | 71° |
| 2026-05-04 18:38 | 49.89630 | 19.66309 | 10294 ft | 381 kts | 71° |
| 2026-05-04 18:38 | 49.90517 | 19.70110 | 10094 ft | 368 kts | 71° |
| 2026-05-04 18:38 | 49.91370 | 19.73768 | 9999 ft | 354 kts | 71° |
| 2026-05-04 18:38 | 49.92198 | 19.77316 | 9835 ft | 346 kts | 71° |
| 2026-05-04 18:39 | 49.93003 | 19.80769 | 9532 ft | 334 kts | 71° |
| 2026-05-04 18:39 | 49.93779 | 19.84094 | 9241 ft | 321 kts | 71° |
| 2026-05-04 18:39 | 49.94523 | 19.87290 | 8902 ft | 310 kts | 71° |
| 2026-05-04 18:39 | 49.95245 | 19.90403 | 8471 ft | 303 kts | 71° |
| 2026-05-04 18:40 | 49.95950 | 19.93448 | 8073 ft | 296 kts | 71° |
| 2026-05-04 18:40 | 49.96582 | 19.96454 | 7659 ft | 289 kts | 81° |
| 2026-05-04 18:40 | 49.96650 | 19.99523 | 7284 ft | 281 kts | 86° |
| 2026-05-04 18:40 | 49.97088 | 20.02458 | 6898 ft | 278 kts | 73° |
| 2026-05-04 18:41 | 49.97702 | 20.05279 | 6511 ft | 274 kts | 71° |
| 2026-05-04 18:41 | 49.98329 | 20.08052 | 6121 ft | 270 kts | 71° |
| 2026-05-04 18:41 | 49.98953 | 20.10787 | 5715 ft | 267 kts | 71° |
| 2026-05-04 18:41 | 49.99557 | 20.13423 | 5317 ft | 264 kts | 71° |
| 2026-05-04 18:42 | 50.00181 | 20.16151 | 5028 ft | 256 kts | 71° |
| 2026-05-04 18:42 | 50.00757 | 20.18671 | 4989 ft | 238 kts | 71° |
| 2026-05-04 18:42 | 50.01288 | 20.21007 | 4990 ft | 231 kts | 71° |
| 2026-05-04 18:42 | 50.01824 | 20.23377 | 5001 ft | 232 kts | 71° |
| 2026-05-04 18:43 | 50.02358 | 20.25745 | 5000 ft | 231 kts | 71° |
| 2026-05-04 18:43 | 50.02885 | 20.28096 | 5007 ft | 230 kts | 71° |
| 2026-05-04 18:43 | 50.03407 | 20.30438 | 5006 ft | 229 kts | 71° |
| 2026-05-04 18:43 | 50.04102 | 20.32702 | 4876 ft | 242 kts | 46° |
| 2026-05-04 18:44 | 50.05533 | 20.34045 | 4466 ft | 243 kts | 6° |
| 2026-05-04 18:44 | 50.06646 | 20.33993 | 4280 ft | 234 kts | 339° |
| 2026-05-04 18:44 | 50.08110 | 20.31939 | 4038 ft | 209 kts | 285° |
| 2026-05-04 18:44 | 50.08575 | 20.29831 | 4006 ft | 209 kts | 292° |
| 2026-05-04 18:45 | 50.09034 | 20.27710 | 4002 ft | 205 kts | 281° |
| 2026-05-04 18:45 | 50.09342 | 20.25575 | 4016 ft | 197 kts | 280° |
| 2026-05-04 18:45 | 50.09638 | 20.23538 | 4004 ft | 188 kts | 280° |
| 2026-05-04 18:45 | 50.09934 | 20.21595 | 4003 ft | 182 kts | 281° |
| 2026-05-04 18:46 | 50.10238 | 20.19689 | 4007 ft | 182 kts | 281° |
| 2026-05-04 18:46 | 50.10549 | 20.17783 | 3996 ft | 180 kts | 281° |
| 2026-05-04 18:46 | 50.10858 | 20.15925 | 4003 ft | 174 kts | 281° |
| 2026-05-04 18:46 | 50.11155 | 20.14150 | 3977 ft | 164 kts | 281° |
| 2026-05-04 18:47 | 50.11443 | 20.12433 | 3999 ft | 164 kts | 281° |
| 2026-05-04 18:47 | 50.11731 | 20.10725 | 4002 ft | 161 kts | 281° |
| 2026-05-04 18:47 | 50.11959 | 20.09044 | 3980 ft | 155 kts | 265° |
| 2026-05-04 18:47 | 50.11746 | 20.07460 | 3998 ft | 151 kts | 256° |
| 2026-05-04 18:48 | 50.11532 | 20.05873 | 3992 ft | 148 kts | 257° |
| 2026-05-04 18:48 | 50.11326 | 20.04320 | 3995 ft | 143 kts | 256° |
| 2026-05-04 18:48 | 50.11128 | 20.02845 | 3990 ft | 140 kts | 256° |
| 2026-05-04 18:48 | 50.10928 | 20.01336 | 3921 ft | 145 kts | 257° |
| 2026-05-04 18:49 | 50.10740 | 19.99803 | 3846 ft | 143 kts | 257° |
| 2026-05-04 18:49 | 50.10534 | 19.98273 | 3684 ft | 148 kts | 257° |
| 2026-05-04 18:49 | 50.10365 | 19.96686 | 3342 ft | 147 kts | 259° |
| 2026-05-04 18:49 | 50.10191 | 19.95171 | 3110 ft | 138 kts | 256° |
| 2026-05-04 18:50 | 50.09955 | 19.93737 | 2802 ft | 136 kts | 255° |
| 2026-05-04 18:50 | 50.09724 | 19.92288 | 2336 ft | 141 kts | 257° |
| 2026-05-04 18:50 | 50.09485 | 19.90810 | 2026 ft | 139 kts | 253° |
| 2026-05-04 18:50 | 50.09274 | 19.89289 | 1818 ft | 145 kts | 257° |
| 2026-05-04 18:51 | 50.09081 | 19.87734 | 1724 ft | 149 kts | 255° |
| 2026-05-04 18:51 | 50.08842 | 19.86152 | 1637 ft | 150 kts | 256° |
| 2026-05-04 18:51 | 50.08613 | 19.84530 | 1430 ft | 155 kts | 257° |
| 2026-05-04 18:51 | 50.08381 | 19.82889 | 1242 ft | 153 kts | 256° |
| 2026-05-04 18:52 | 50.08156 | 19.81272 | 1032 ft | 154 kts | 257° |
| 2026-05-04 18:52 | 50.07930 | 19.79648 | 803 ft | 151 kts | 257° |
| 2026-05-04 18:52 | 50.07733 | 19.78231 | 788 ft | 106 kts | 258° |
| 2026-05-04 18:52 | 50.07622 | 19.77438 | 789 ft | 45 kts | 258° |
| 2026-05-04 18:53 | 50.07582 | 19.77153 | 793 ft | 22 kts | 258° |
| 2026-05-04 18:53 | 50.07544 | 19.76920 | 794 ft | 22 kts | 240° |
| 2026-05-04 18:53 | 50.07452 | 19.76865 | 791 ft | 15 kts | 170° |
| 2026-05-04 18:53 | 50.07413 | 19.76877 | 789 ft | 0 kts | 169° |
| 2026-05-04 18:54 | 50.07412 | 19.76877 | 789 ft | 0 kts | 169° |
| 2026-05-04 18:54 | 50.07408 | 19.76878 | 789 ft | 2 kts | 169° |
| 2026-05-04 18:54 | 50.07376 | 19.76888 | 789 ft | 7 kts | 169° |
| 2026-05-04 18:54 | 50.07322 | 19.76922 | 788 ft | 10 kts | 127° |
| 2026-05-04 18:55 | 50.07318 | 19.77036 | 788 ft | 12 kts | 78° |
| 2026-05-04 18:55 | 50.07363 | 19.77347 | 788 ft | 17 kts | 77° |
| 2026-05-04 18:55 | 50.07388 | 19.77539 | 788 ft | 19 kts | 79° |
| 2026-05-04 18:56 | 50.07418 | 19.77751 | 788 ft | 21 kts | 77° |
| 2026-05-04 18:56 | 50.07447 | 19.77955 | 788 ft | 19 kts | 77° |
| 2026-05-04 18:56 | 50.07477 | 19.78163 | 788 ft | 21 kts | 77° |
| 2026-05-04 18:56 | 50.07509 | 19.78389 | 788 ft | 22 kts | 77° |
| 2026-05-04 18:57 | 50.07536 | 19.78601 | 788 ft | 18 kts | 78° |
| 2026-05-04 18:57 | 50.07563 | 19.78798 | 788 ft | 20 kts | 77° |
| 2026-05-04 18:57 | 50.07595 | 19.79017 | 788 ft | 22 kts | 77° |
| 2026-05-04 18:57 | 50.07629 | 19.79257 | 788 ft | 24 kts | 79° |
| 2026-05-04 18:58 | 50.07661 | 19.79497 | 788 ft | 19 kts | 77° |
| 2026-05-04 18:58 | 50.07691 | 19.79714 | 788 ft | 22 kts | 77° |
| 2026-05-04 18:58 | 50.07708 | 19.79864 | 788 ft | 8 kts | 98° |
| 2026-05-04 18:58 | 50.07680 | 19.79913 | 788 ft | 5 kts | 162° |
| 2026-05-04 18:59 | 50.07641 | 19.79908 | 788 ft | 7 kts | 190° |
| 2026-05-04 18:59 | 50.07587 | 19.79910 | 788 ft | 9 kts | 169° |
| 2026-05-04 18:59 | 50.07523 | 19.79944 | 788 ft | 6 kts | 134° |
| 2026-05-04 18:59 | 50.07516 | 19.80009 | 788 ft | 7 kts | 82° |
| 2026-05-04 19:00 | 50.07523 | 19.80098 | 788 ft | 9 kts | 105° |
| 2026-05-04 19:00 | 50.07483 | 19.80140 | 788 ft | 0 kts | 167° |